Time;durP1;ratioP1;P1;durP2;ratioP2;P2;SDS_P1;SDS_P2;PMS_P1;PMS_P2;Temp;Humidity;BMP_temperature;BMP_pressure;BME280_temperature;BME280_humidity;BME280_pressure;Samples;Min_cycle;Max_cycle;Signal;HPM_P1;HPM_P2
2021/06/10 00:00:41;;;;;;;17.77;15.82;;;;;;;;;;4992262;28;20054;-66
2021/06/10 00:03:07;;;;;;;18.52;15.82;;;;;;;;;;4992079;28;20142;-66
2021/06/10 00:05:35;;;;;;;18.98;15.65;;;;;;;;;;4992264;28;20093;-67
2021/06/10 00:08:01;;;;;;;18.17;15.85;;;;;;;;;;4992101;28;20097;-66
2021/06/10 00:10:29;;;;;;;19.73;15.73;;;;;;;;;;4992217;28;20177;-67
2021/06/10 00:12:56;;;;;;;17.83;15.90;;;;;;;;;;4991757;28;20089;-68
2021/06/10 00:15:25;;;;;;;19.00;14.88;;;;;;;;;;4992146;28;20058;-66
2021/06/10 00:17:52;;;;;;;19.42;15.75;;;;;;;;;;4992279;28;20141;-67
2021/06/10 00:20:21;;;;;;;17.50;15.60;;;;;;;;;;4992053;28;20054;-67
2021/06/10 00:22:48;;;;;;;18.98;16.85;;;;;;;;;;4992032;28;20141;-67
2021/06/10 00:25:14;;;;;;;18.95;14.98;;;;;;;;;;4992672;28;20085;-67
2021/06/10 00:27:41;;;;;;;17.92;15.98;;;;;;;;;;4992447;28;20043;-67
2021/06/10 00:30:10;;;;;;;22.00;15.88;;;;;;;;;;4992768;28;20047;-68
2021/06/10 00:32:37;;;;;;;20.05;17.67;;;;;;;;;;4993705;28;20073;-68
2021/06/10 00:35:04;;;;;;;22.88;18.60;;;;;;;;;;4993150;28;20078;-66
2021/06/10 00:37:31;;;;;;;21.98;18.45;;;;;;;;;;4993741;28;20576;-68
2021/06/10 00:39:57;;;;;;;20.80;17.05;;;;;;;;;;4993416;28;20078;-69
2021/06/10 00:42:24;;;;;;;23.98;18.77;;;;;;;;;;4995887;28;20098;-68
2021/06/10 00:44:50;;;;;;;30.98;21.45;;;;;;;;;;4995996;28;20096;-68
2021/06/10 00:47:17;;;;;;;34.70;22.83;;;;;;;;;;4993689;28;20086;-68
2021/06/10 00:49:44;;;;;;;32.55;21.85;;;;;;;;;;4993799;28;20086;-67
2021/06/10 00:52:10;;;;;;;30.38;21.35;;;;;;;;;;4995432;28;20093;-68
2021/06/10 00:54:37;;;;;;;25.27;20.17;;;;;;;;;;4996252;28;20077;-68
2021/06/10 00:57:04;;;;;;;29.60;20.40;;;;;;;;;;4995630;28;20082;-68
2021/06/10 00:59:31;;;;;;;23.75;18.35;;;;;;;;;;4995482;28;20104;-67
2021/06/10 01:01:57;;;;;;;22.77;17.35;;;;;;;;;;5010381;28;20145;-67
2021/06/10 01:04:24;;;;;;;22.75;17.65;;;;;;;;;;4995506;28;20151;-67
2021/06/10 01:21:53;;;;;;;18.50;15.40;;;;;;;;;;4996038;28;20449;-68
2021/06/10 01:24:29;;;;;;;20.42;15.95;;;;;;;;;;4994739;28;20550;-68
2021/06/10 01:27:14;;;;;;;21.35;16.73;;;;;;;;;;4996500;28;20137;-67
2021/06/10 01:29:40;;;;;;;21.30;17.02;;;;;;;;;;4994832;28;20081;-67
2021/06/10 01:32:07;;;;;;;22.95;16.75;;;;;;;;;;4993505;28;20065;-67
2021/06/10 01:34:33;;;;;;;27.85;18.08;;;;;;;;;;4994667;28;20058;-66
2021/06/10 01:37:00;;;;;;;26.25;18.17;;;;;;;;;;4977437;28;20100;-67
2021/06/10 01:39:27;;;;;;;22.73;16.90;;;;;;;;;;4993351;28;20047;-67
2021/06/10 01:41:54;;;;;;;27.27;17.80;;;;;;;;;;4993371;28;20089;-66
2021/06/10 01:44:20;;;;;;;24.45;18.30;;;;;;;;;;4993253;28;20089;-67
2021/06/10 01:46:49;;;;;;;25.05;17.98;;;;;;;;;;4977277;28;20085;-66
2021/06/10 01:49:17;;;;;;;31.45;17.38;;;;;;;;;;4993122;28;20501;-66
2021/06/10 01:51:43;;;;;;;44.70;19.17;;;;;;;;;;4993187;28;20077;-66
2021/06/10 01:54:10;;;;;;;46.60;18.77;;;;;;;;;;4993114;28;20107;-67
2021/06/10 01:56:37;;;;;;;49.33;19.05;;;;;;;;;;4976838;28;20109;-66
2021/06/10 01:59:05;;;;;;;26.13;18.95;;;;;;;;;;4992830;28;20086;-67
2021/06/10 02:01:32;;;;;;;23.60;19.10;;;;;;;;;;4992996;28;20085;-66
2021/06/10 02:03:59;;;;;;;23.00;17.33;;;;;;;;;;4991655;28;20078;-67
2021/06/10 02:06:26;;;;;;;24.98;18.88;;;;;;;;;;4992842;28;20054;-67
2021/06/10 02:08:52;;;;;;;23.10;18.75;;;;;;;;;;4976637;28;20046;-67
2021/06/10 02:11:19;;;;;;;22.05;17.75;;;;;;;;;;4993856;28;20097;-67
2021/06/10 02:13:47;;;;;;;18.02;15.80;;;;;;;;;;4993483;28;20133;-67
2021/06/10 02:16:14;;;;;;;20.10;16.95;;;;;;;;;;4992809;28;20082;-68
2021/06/10 02:21:11;;;;;;;19.65;16.83;;;;;;;;;;4991922;28;20054;-69
2021/06/10 02:23:39;;;;;;;18.02;15.30;;;;;;;;;;4994011;28;20085;-70
2021/06/10 02:26:05;;;;;;;18.08;16.17;;;;;;;;;;4993882;28;20082;-69
2021/06/10 02:28:33;;;;;;;18.35;15.15;;;;;;;;;;5011564;28;20547;-69
2021/06/10 02:31:00;;;;;;;18.13;15.73;;;;;;;;;;5032227;28;20081;-69
2021/06/10 02:33:27;;;;;;;17.55;15.15;;;;;;;;;;5032772;28;20092;-70
2021/06/10 02:35:53;;;;;;;18.05;15.75;;;;;;;;;;5048330;28;20095;-69
2021/06/10 02:38:20;;;;;;;16.60;14.82;;;;;;;;;;5032817;28;20296;-69
2021/06/10 02:40:50;;;;;;;16.92;15.02;;;;;;;;;;5048032;28;20099;-70
2021/06/10 02:43:17;;;;;;;16.10;14.38;;;;;;;;;;5048050;28;20431;-70
2021/06/10 02:45:44;;;;;;;17.73;15.50;;;;;;;;;;5048064;28;20096;-70
2021/06/10 02:48:12;;;;;;;18.55;16.55;;;;;;;;;;5032589;28;20107;-70
2021/06/10 02:50:40;;;;;;;22.98;17.98;;;;;;;;;;5031388;28;20087;-70
2021/06/10 02:53:07;;;;;;;24.60;17.88;;;;;;;;;;5031379;28;20088;-70
2021/06/10 02:55:37;;;;;;;25.02;18.42;;;;;;;;;;5047773;28;20085;-70
2021/06/10 02:58:04;;;;;;;29.95;17.85;;;;;;;;;;5032396;28;20132;-70
2021/06/10 03:00:32;;;;;;;23.95;18.40;;;;;;;;;;5031039;28;20087;-70
2021/06/10 03:03:00;;;;;;;20.48;16.50;;;;;;;;;;5031272;28;20092;-69
2021/06/10 03:05:28;;;;;;;20.30;15.95;;;;;;;;;;5032389;28;20472;-70
2021/06/10 03:07:54;;;;;;;19.65;16.50;;;;;;;;;;5031179;28;20088;-69
2021/06/10 03:10:24;;;;;;;21.20;16.33;;;;;;;;;;5030822;28;20053;-69
2021/06/10 03:12:50;;;;;;;22.30;16.17;;;;;;;;;;5032254;28;20077;-70
2021/06/10 03:15:17;;;;;;;26.10;17.15;;;;;;;;;;5012027;28;20085;-69
2021/06/10 03:17:43;;;;;;;20.20;16.08;;;;;;;;;;5008011;28;20046;-69
2021/06/10 03:20:10;;;;;;;22.30;16.27;;;;;;;;;;5007690;28;20137;-69
2021/06/10 03:22:37;;;;;;;27.70;17.08;;;;;;;;;;4992603;28;20096;-70
2021/06/10 03:25:08;;;;;;;28.75;16.48;;;;;;;;;;5021350;28;20084;-70
2021/06/10 03:27:35;;;;;;;20.08;15.93;;;;;;;;;;5031948;28;20089;-69
2021/06/10 03:30:04;;;;;;;18.05;15.07;;;;;;;;;;5030686;28;20088;-69
2021/06/10 03:32:30;;;;;;;24.02;15.93;;;;;;;;;;5031795;28;20088;-69
2021/06/10 03:34:57;;;;;;;22.35;15.45;;;;;;;;;;5031838;28;20099;-70
2021/06/10 03:37:24;;;;;;;23.38;14.70;;;;;;;;;;5030728;28;20081;-70
2021/06/10 03:39:51;;;;;;;16.63;14.23;;;;;;;;;;5030638;28;20488;-70
2021/06/10 03:42:18;;;;;;;33.00;14.68;;;;;;;;;;5031999;28;20100;-70
2021/06/10 03:44:45;;;;;;;18.20;14.50;;;;;;;;;;5032021;28;20084;-70
2021/06/10 03:47:16;;;;;;;22.13;15.30;;;;;;;;;;5047001;28;20141;-69
2021/06/10 03:49:43;;;;;;;24.23;14.68;;;;;;;;;;5031857;28;20050;-70
2021/06/10 03:52:10;;;;;;;19.38;14.77;;;;;;;;;;5031837;28;20084;-70
2021/06/10 03:54:36;;;;;;;29.10;14.55;;;;;;;;;;5031458;28;20124;-70
2021/06/10 03:57:03;;;;;;;29.85;15.13;;;;;;;;;;5031766;28;20500;-70
2021/06/10 03:59:30;;;;;;;39.17;14.90;;;;;;;;;;5031667;28;20532;-70
2021/06/10 04:01:57;;;;;;;25.73;14.45;;;;;;;;;;5031636;28;20091;-69
2021/06/10 04:04:25;;;;;;;21.58;13.13;;;;;;;;;;5024858;28;20057;-69
2021/06/10 04:06:53;;;;;;;26.92;15.40;;;;;;;;;;5011970;28;20049;-70
2021/06/10 04:09:19;;;;;;;23.20;15.32;;;;;;;;;;5010645;28;20046;-70
2021/06/10 04:11:46;;;;;;;20.55;15.82;;;;;;;;;;5011884;28;20096;-70
2021/06/10 04:14:12;;;;;;;30.45;15.55;;;;;;;;;;5011724;28;20129;-69
2021/06/10 04:16:39;;;;;;;19.98;15.48;;;;;;;;;;5011719;28;20104;-69
2021/06/10 04:19:05;;;;;;;25.00;15.88;;;;;;;;;;5011408;28;20129;-70
2021/06/10 04:21:32;;;;;;;21.77;16.30;;;;;;;;;;5011719;28;20100;-70
2021/06/10 04:23:59;;;;;;;19.38;15.15;;;;;;;;;;5011657;28;20512;-70
2021/06/10 04:26:25;;;;;;;21.52;15.95;;;;;;;;;;5013078;28;20084;-69
2021/06/10 04:28:52;;;;;;;17.70;15.13;;;;;;;;;;5015477;28;20132;-69
2021/06/10 04:31:19;;;;;;;19.25;15.65;;;;;;;;;;5030656;28;20499;-70
2021/06/10 04:33:46;;;;;;;18.85;15.48;;;;;;;;;;5015298;28;20056;-70
2021/06/10 04:36:13;;;;;;;19.98;14.93;;;;;;;;;;5015514;28;20453;-70
2021/06/10 04:38:40;;;;;;;20.17;15.95;;;;;;;;;;5015226;28;20073;-70
2021/06/10 04:41:07;;;;;;;18.65;15.70;;;;;;;;;;5015413;28;20053;-70
2021/06/10 04:43:34;;;;;;;18.95;15.90;;;;;;;;;;5026878;28;20095;-69
2021/06/10 04:46:00;;;;;;;17.17;15.35;;;;;;;;;;5034925;28;20089;-70
2021/06/10 04:48:27;;;;;;;16.77;14.63;;;;;;;;;;5034897;28;20045;-70
2021/06/10 04:50:54;;;;;;;16.85;15.05;;;;;;;;;;5035225;28;20476;-69
2021/06/10 04:53:22;;;;;;;16.45;14.68;;;;;;;;;;5024603;28;20416;-70
2021/06/10 04:55:49;;;;;;;16.52;14.23;;;;;;;;;;5015045;28;20077;-69
2021/06/10 04:58:15;;;;;;;18.23;16.20;;;;;;;;;;5033463;28;20091;-69
2021/06/10 05:00:42;;;;;;;23.88;16.75;;;;;;;;;;5034553;28;20572;-69
2021/06/10 05:03:09;;;;;;;18.52;16.40;;;;;;;;;;5025214;28;20129;-69
2021/06/10 05:05:35;;;;;;;19.60;17.35;;;;;;;;;;5014690;28;20089;-69
2021/06/10 05:08:02;;;;;;;19.55;17.13;;;;;;;;;;5014942;28;20101;-69
2021/06/10 05:10:29;;;;;;;19.40;17.08;;;;;;;;;;5014428;28;20073;-69
2021/06/10 05:12:55;;;;;;;22.80;18.17;;;;;;;;;;5014582;28;20120;-69
2021/06/10 05:15:22;;;;;;;19.65;16.63;;;;;;;;;;5014426;28;20089;-69
2021/06/10 05:17:49;;;;;;;24.83;18.05;;;;;;;;;;5014728;28;20476;-69
2021/06/10 05:20:17;;;;;;;22.00;18.48;;;;;;;;;;5014556;28;20456;-70
2021/06/10 05:22:44;;;;;;;20.40;17.23;;;;;;;;;;5014405;28;20054;-69
2021/06/10 05:25:11;;;;;;;21.15;17.85;;;;;;;;;;5029449;28;20100;-69
2021/06/10 05:27:38;;;;;;;21.48;17.88;;;;;;;;;;5024856;28;20151;-69
2021/06/10 05:30:06;;;;;;;21.63;17.17;;;;;;;;;;5033282;28;20485;-69
2021/06/10 05:32:32;;;;;;;19.13;17.05;;;;;;;;;;5014083;28;20088;-69
2021/06/10 05:34:59;;;;;;;20.17;17.38;;;;;;;;;;5013911;28;20077;-70
2021/06/10 05:37:25;;;;;;;20.63;17.90;;;;;;;;;;5021135;28;20080;-69
2021/06/10 05:39:52;;;;;;;21.13;17.98;;;;;;;;;;5014310;28;20089;-69
2021/06/10 05:42:18;;;;;;;18.10;16.20;;;;;;;;;;5013826;28;20536;-69
2021/06/10 05:44:45;;;;;;;19.45;16.70;;;;;;;;;;5014086;28;20445;-69
2021/06/10 05:47:12;;;;;;;20.20;17.58;;;;;;;;;;5014227;28;20081;-69
2021/06/10 05:49:38;;;;;;;19.10;17.13;;;;;;;;;;5013771;28;20077;-70
2021/06/10 05:52:05;;;;;;;18.35;16.48;;;;;;;;;;5013787;28;20517;-70
2021/06/10 05:54:32;;;;;;;18.73;15.73;;;;;;;;;;5013674;28;20053;-69
2021/06/10 05:56:58;;;;;;;18.75;16.75;;;;;;;;;;5013800;28;20089;-70
2021/06/10 05:59:26;;;;;;;17.23;15.48;;;;;;;;;;5013612;28;20046;-70
2021/06/10 06:01:53;;;;;;;17.23;15.25;;;;;;;;;;5010754;28;20083;-70
2021/06/10 06:04:20;;;;;;;17.08;15.30;;;;;;;;;;5011595;28;20557;-69
2021/06/10 06:06:47;;;;;;;17.60;14.75;;;;;;;;;;5011667;28;20100;-70
2021/06/10 06:09:15;;;;;;;15.88;13.85;;;;;;;;;;5011453;28;20081;-70
2021/06/10 06:11:41;;;;;;;15.23;13.73;;;;;;;;;;5011343;28;20719;-70
2021/06/10 06:14:08;;;;;;;13.68;12.30;;;;;;;;;;5011047;28;20077;-70
2021/06/10 06:16:37;;;;;;;13.48;12.18;;;;;;;;;;5011311;28;20089;-70
2021/06/10 06:19:04;;;;;;;13.27;11.45;;;;;;;;;;5030035;28;20053;-70
2021/06/10 06:21:33;;;;;;;13.60;12.10;;;;;;;;;;5030822;28;20141;-71
2021/06/10 06:24:00;;;;;;;13.65;11.38;;;;;;;;;;5030850;28;20461;-70
2021/06/10 06:26:26;;;;;;;13.45;10.88;;;;;;;;;;5030411;28;20141;-71
2021/06/10 06:28:58;;;;;;;14.93;11.82;;;;;;;;;;5013820;28;20525;-70
2021/06/10 06:31:25;;;;;;;18.58;13.88;;;;;;;;;;5026231;28;20480;-70
2021/06/10 06:33:52;;;;;;;14.10;11.95;;;;;;;;;;5010927;28;20050;-70
2021/06/10 06:36:19;;;;;;;16.13;11.25;;;;;;;;;;5011115;28;20129;-70
2021/06/10 06:38:47;;;;;;;11.98;10.73;;;;;;;;;;5027452;28;20777;-70
2021/06/10 06:41:14;;;;;;;13.48;10.55;;;;;;;;;;5030668;28;20535;-70
2021/06/10 06:43:40;;;;;;;11.02;9.88;;;;;;;;;;5030658;28;20053;-71
2021/06/10 06:46:09;;;;;;;11.77;10.52;;;;;;;;;;5013280;28;20105;-73
2021/06/10 06:48:37;;;;;;;10.55;9.55;;;;;;;;;;5008441;28;20112;-72
2021/06/10 06:51:05;;;;;;;13.85;10.80;;;;;;;;;;5010487;28;20057;-70
2021/06/10 06:53:32;;;;;;;11.55;10.45;;;;;;;;;;5009418;28;20485;-71
2021/06/10 06:56:18;;;;;;;10.98;9.57;;;;;;;;;;5006465;28;20497;-71
2021/06/10 06:58:45;;;;;;;11.18;10.07;;;;;;;;;;5005951;28;20082;-71
2021/06/10 07:01:11;;;;;;;11.82;10.50;;;;;;;;;;4991141;28;20118;-70
2021/06/10 07:03:38;;;;;;;9.75;8.85;;;;;;;;;;4991099;28;20074;-71
2021/06/10 07:06:04;;;;;;;10.90;9.38;;;;;;;;;;4990849;28;20104;-71
2021/06/10 07:08:31;;;;;;;10.18;9.18;;;;;;;;;;4991026;28;20085;-71
2021/06/10 07:11:01;;;;;;;8.95;8.13;;;;;;;;;;4990963;28;20057;-70
2021/06/10 07:13:27;;;;;;;13.35;11.95;;;;;;;;;;5005477;28;20054;-71
2021/06/10 07:15:54;;;;;;;12.45;11.13;;;;;;;;;;4991146;28;20097;-71
2021/06/10 07:18:21;;;;;;;11.50;10.40;;;;;;;;;;5005534;28;20410;-71
2021/06/10 07:20:48;;;;;;;11.80;10.65;;;;;;;;;;4990885;28;20767;-71
2021/06/10 07:23:15;;;;;;;13.43;10.63;;;;;;;;;;4989148;28;20751;-72
2021/06/10 07:25:41;;;;;;;9.50;8.70;;;;;;;;;;4989130;28;20145;-71
2021/06/10 07:28:08;;;;;;;9.68;8.77;;;;;;;;;;5030386;28;20085;-73
2021/06/10 07:30:35;;;;;;;8.88;8.07;;;;;;;;;;5030603;28;20050;-74
2021/06/10 07:33:03;;;;;;;9.32;8.43;;;;;;;;;;5030588;28;20081;-70
2021/06/10 07:35:33;;;;;;;10.88;8.73;;;;;;;;;;4995412;28;20451;-71
2021/06/10 07:38:01;;;;;;;9.27;8.35;;;;;;;;;;5012122;28;20054;-71
2021/06/10 07:40:29;;;;;;;8.95;8.15;;;;;;;;;;5010489;28;20402;-71
2021/06/10 07:42:58;;;;;;;11.57;9.60;;;;;;;;;;5011815;28;20535;-71
2021/06/10 07:45:27;;;;;;;8.77;7.88;;;;;;;;;;5027006;28;20098;-71
2021/06/10 07:47:54;;;;;;;9.10;8.23;;;;;;;;;;5011948;28;20053;-74
2021/06/10 07:50:21;;;;;;;9.45;8.50;;;;;;;;;;5026617;28;20604;-72
2021/06/10 07:52:48;;;;;;;11.05;9.95;;;;;;;;;;5010101;28;20137;-72
2021/06/10 07:55:15;;;;;;;11.15;8.15;;;;;;;;;;4998361;28;20112;-72
2021/06/10 07:57:42;;;;;;;13.15;11.90;;;;;;;;;;5003625;28;20078;-74
2021/06/10 08:00:09;;;;;;;13.38;12.10;;;;;;;;;;4999715;28;20064;-72
2021/06/10 08:02:40;;;;;;;12.90;11.65;;;;;;;;;;5015742;28;20146;-72
2021/06/10 08:05:08;;;;;;;14.00;12.65;;;;;;;;;;5003479;28;20054;-74
2021/06/10 08:07:35;;;;;;;13.55;12.15;;;;;;;;;;5004065;28;20085;-72
2021/06/10 08:10:01;;;;;;;12.43;11.32;;;;;;;;;;5001447;28;20136;-71
2021/06/10 08:12:28;;;;;;;12.45;11.18;;;;;;;;;;5000118;28;20054;-71
2021/06/10 08:14:55;;;;;;;12.15;10.95;;;;;;;;;;5001623;28;20053;-70
2021/06/10 08:17:21;;;;;;;11.45;10.40;;;;;;;;;;5007328;28;20085;-71
2021/06/10 08:19:48;;;;;;;13.68;11.25;;;;;;;;;;5026973;23;20093;-67
2021/06/10 08:22:14;;;;;;;9.85;8.93;;;;;;;;;;5023208;28;20077;-67
2021/06/10 08:24:41;;;;;;;13.05;11.75;;;;;;;;;;5021207;28;20085;-67
2021/06/10 08:27:08;;;;;;;12.70;11.40;;;;;;;;;;5029226;28;20128;-67
2021/06/10 08:29:34;;;;;;;11.90;10.57;;;;;;;;;;5020337;28;20562;-67
2021/06/10 08:32:01;;;;;;;12.75;11.55;;;;;;;;;;5006567;28;20081;-68
2021/06/10 08:34:28;;;;;;;13.82;12.40;;;;;;;;;;5014108;28;20057;-67
2021/06/10 08:36:54;;;;;;;12.65;10.98;;;;;;;;;;5014736;28;20081;-67
2021/06/10 08:39:22;;;;;;;12.88;11.68;;;;;;;;;;5014254;28;20054;-67
2021/06/10 08:41:48;;;;;;;12.70;10.93;;;;;;;;;;5014373;28;20090;-67
2021/06/10 08:44:15;;;;;;;11.07;10.07;;;;;;;;;;5013867;28;20081;-67
2021/06/10 08:46:41;;;;;;;11.73;10.57;;;;;;;;;;5014315;28;20078;-66
2021/06/10 08:49:08;;;;;;;12.35;10.77;;;;;;;;;;5013994;28;20136;-66
2021/06/10 08:51:36;;;;;;;12.82;11.57;;;;;;;;;;4988454;28;20125;-66
2021/06/10 08:54:03;;;;;;;13.20;11.80;;;;;;;;;;5012586;28;20078;-66
2021/06/10 08:56:32;;;;;;;13.82;12.52;;;;;;;;;;5012738;28;20120;-76
2021/06/10 08:58:59;;;;;;;14.73;11.95;;;;;;;;;;5011329;28;20080;-70
2021/06/10 09:01:25;;;;;;;13.35;12.13;;;;;;;;;;5012055;28;20088;-72
2021/06/10 09:03:54;;;;;;;14.35;12.85;;;;;;;;;;5013691;28;20054;-76
2021/06/10 09:06:20;;;;;;;14.13;12.75;;;;;;;;;;5012424;28;20054;-74
2021/06/10 09:08:49;;;;;;;14.10;12.70;;;;;;;;;;5006152;28;20081;-76
2021/06/10 09:11:23;;;;;;;12.77;11.60;;;;;;;;;;5012915;28;20084;-75
2021/06/10 09:13:55;;;;;;;12.55;11.25;;;;;;;;;;5011829;28;20104;-73
2021/06/10 09:16:23;;;;;;;14.00;12.18;;;;;;;;;;5013336;28;20053;-72
2021/06/10 09:18:52;;;;;;;12.35;11.15;;;;;;;;;;5014305;28;20081;-74
2021/06/10 09:21:30;;;;;;;11.25;10.20;;;;;;;;;;5007060;28;20562;-74
2021/06/10 09:24:30;;;;;;;12.77;11.32;;;;;;;;;;5005272;28;20061;-77
2021/06/10 09:27:07;;;;;;;14.88;13.27;;;;;;;;;;4996169;28;20050;-75
2021/06/10 09:29:47;;;;;;;12.70;11.38;;;;;;;;;;4992908;28;20054;-77
2021/06/10 09:32:25;;;;;;;14.05;12.65;;;;;;;;;;5009912;28;20053;-78
2021/06/10 09:34:56;;;;;;;12.88;11.60;;;;;;;;;;5013826;28;20046;-67
2021/06/10 09:38:03;;;;;;;13.18;11.75;;;;;;;;;;5011168;28;20129;-77
2021/06/10 09:40:35;;;;;;;13.02;11.73;;;;;;;;;;4933311;28;20055;-75
2021/06/10 09:43:21;;;;;;;13.30;11.98;;;;;;;;;;4993036;28;20054;-80
2021/06/10 09:45:54;;;;;;;12.27;10.98;;;;;;;;;;4991071;28;20050;-75
2021/06/10 09:48:31;;;;;;;13.05;11.10;;;;;;;;;;5022145;28;20026;-79
2021/06/10 09:51:29;;;;;;;13.27;11.00;;;;;;;;;;5013868;28;20054;-80
2021/06/10 09:53:56;;;;;;;12.38;11.07;;;;;;;;;;4972723;28;20047;-77
2021/06/10 09:56:23;;;;;;;11.93;10.75;;;;;;;;;;4951657;28;20089;-76
2021/06/10 09:59:04;;;;;;;11.65;10.43;;;;;;;;;;4939157;28;20070;-75
2021/06/10 10:01:31;;;;;;;10.35;9.32;;;;;;;;;;4971150;28;20050;-77
2021/06/10 10:03:59;;;;;;;10.73;9.63;;;;;;;;;;4995972;28;20062;-76
2021/06/10 10:06:27;;;;;;;9.30;8.50;;;;;;;;;;5027887;28;20397;-73
2021/06/10 10:09:00;;;;;;;11.88;10.70;;;;;;;;;;5012902;28;20054;-73
2021/06/10 10:11:27;;;;;;;12.10;10.85;;;;;;;;;;5016874;28;20080;-74
2021/06/10 10:13:56;;;;;;;11.63;10.02;;;;;;;;;;5012678;28;20133;-67
2021/06/10 10:16:35;;;;;;;10.63;9.63;;;;;;;;;;5011703;28;20447;-67
2021/06/10 10:19:03;;;;;;;9.95;8.07;;;;;;;;;;5009774;28;20050;-67
2021/06/10 10:21:32;;;;;;;9.77;8.85;;;;;;;;;;5011559;28;20041;-67
2021/06/10 10:24:06;;;;;;;11.35;10.35;;;;;;;;;;5010876;28;20088;-67
2021/06/10 10:26:33;;;;;;;10.35;9.35;;;;;;;;;;5011841;28;20049;-67
2021/06/10 10:29:01;;;;;;;12.30;11.10;;;;;;;;;;5011763;28;20077;-67
2021/06/10 10:31:29;;;;;;;14.65;11.30;;;;;;;;;;4999466;28;20132;-68
2021/06/10 10:33:56;;;;;;;12.60;11.40;;;;;;;;;;5011212;28;20050;-69
2021/06/10 10:36:24;;;;;;;12.45;11.32;;;;;;;;;;5011519;28;20057;-69
2021/06/10 10:39:04;;;;;;;11.93;10.93;;;;;;;;;;5011918;28;20077;-69
2021/06/10 10:41:31;;;;;;;15.10;13.68;;;;;;;;;;5011236;28;20042;-69
2021/06/10 10:44:19;;;;;;;15.43;13.82;;;;;;;;;;5011623;28;20151;-67
2021/06/10 10:47:06;;;;;;;12.32;11.10;;;;;;;;;;5009944;28;20093;-68
2021/06/10 10:49:44;;;;;;;15.15;13.48;;;;;;;;;;5009679;28;20061;-67
2021/06/10 10:52:13;;;;;;;14.02;12.63;;;;;;;;;;5010012;28;20101;-67
2021/06/10 10:54:42;;;;;;;16.90;15.23;;;;;;;;;;5008070;28;20053;-67
2021/06/10 10:57:30;;;;;;;15.90;14.38;;;;;;;;;;5011609;28;20180;-70
2021/06/10 10:59:57;;;;;;;13.32;12.02;;;;;;;;;;5017890;28;20042;-68
2021/06/10 11:02:27;;;;;;;13.30;11.90;;;;;;;;;;5007528;28;20054;-68
2021/06/10 11:04:59;;;;;;;12.82;11.63;;;;;;;;;;5010647;28;20129;-68
2021/06/10 11:07:35;;;;;;;13.57;12.00;;;;;;;;;;5011375;28;20476;-68
2021/06/10 11:10:15;;;;;;;16.77;15.00;;;;;;;;;;5011327;28;20420;-68
2021/06/10 11:12:47;;;;;;;14.43;12.50;;;;;;;;;;5010882;28;20046;-68
2021/06/10 11:15:26;;;;;;;14.05;12.60;;;;;;;;;;5011329;28;20050;-68
2021/06/10 11:17:56;;;;;;;13.38;12.13;;;;;;;;;;5008098;28;20054;-68
2021/06/10 11:20:37;;;;;;;14.18;12.77;;;;;;;;;;5011075;28;20159;-68
2021/06/10 11:23:27;;;;;;;13.30;12.10;;;;;;;;;;5011414;28;20052;-68
2021/06/10 11:25:57;;;;;;;13.40;12.10;;;;;;;;;;5010123;28;20119;-67
2021/06/10 11:28:26;;;;;;;12.98;11.73;;;;;;;;;;5011193;28;20049;-68
2021/06/10 11:31:11;;;;;;;13.73;12.27;;;;;;;;;;5010759;28;20133;-68
2021/06/10 11:33:38;;;;;;;11.48;10.43;;;;;;;;;;5009750;28;20152;-68
2021/06/10 11:36:05;;;;;;;12.00;10.77;;;;;;;;;;4993636;28;20085;-68
2021/06/10 11:38:45;;;;;;;11.65;10.57;;;;;;;;;;5011017;28;20092;-68
2021/06/10 11:41:17;;;;;;;9.93;9.02;;;;;;;;;;4981248;28;20073;-68
2021/06/10 11:43:47;;;;;;;11.18;9.98;;;;;;;;;;5009083;28;20077;-68
2021/06/10 11:46:33;;;;;;;11.32;10.23;;;;;;;;;;5010897;28;20041;-68
2021/06/10 11:49:00;;;;;;;12.43;11.05;;;;;;;;;;5010950;28;20421;-68
2021/06/10 11:51:31;;;;;;;10.88;9.88;;;;;;;;;;5010640;28;20651;-68
2021/06/10 11:54:04;;;;;;;12.20;10.90;;;;;;;;;;5010918;28;20156;-68
2021/06/10 11:56:31;;;;;;;13.80;12.60;;;;;;;;;;5010765;28;20088;-69
2021/06/10 11:59:13;;;;;;;11.25;10.35;;;;;;;;;;5010827;28;20157;-69
2021/06/10 12:01:39;;;;;;;12.20;11.10;;;;;;;;;;5008032;28;20077;-69
2021/06/10 12:04:10;;;;;;;14.50;12.23;;;;;;;;;;5010057;28;20081;-69
2021/06/10 12:06:36;;;;;;;12.38;11.27;;;;;;;;;;5010757;28;20072;-69
2021/06/10 12:09:13;;;;;;;11.55;10.52;;;;;;;;;;5011136;28;20081;-69
2021/06/10 12:11:49;;;;;;;12.80;11.63;;;;;;;;;;5010025;28;20080;-69
2021/06/10 12:14:16;;;;;;;11.23;10.30;;;;;;;;;;5011217;28;20057;-69
2021/06/10 12:16:43;;;;;;;11.55;10.55;;;;;;;;;;5011328;28;20050;-69
2021/06/10 12:19:16;;;;;;;10.45;9.50;;;;;;;;;;5010795;28;20089;-69
2021/06/10 12:21:43;;;;;;;11.38;10.02;;;;;;;;;;5006860;28;20081;-68
2021/06/10 12:24:10;;;;;;;10.05;9.07;;;;;;;;;;5009843;28;20089;-68
2021/06/10 12:26:36;;;;;;;9.90;9.10;;;;;;;;;;5010493;28;20081;-69
2021/06/10 12:29:03;;;;;;;10.65;9.65;;;;;;;;;;5010223;28;20516;-69
2021/06/10 12:31:36;;;;;;;9.90;9.00;;;;;;;;;;5010267;28;20077;-69
2021/06/10 12:34:05;;;;;;;8.35;7.65;;;;;;;;;;5011389;28;20123;-69
2021/06/10 12:36:34;;;;;;;10.00;9.10;;;;;;;;;;5011833;28;20093;-69
2021/06/10 12:39:02;;;;;;;9.02;8.13;;;;;;;;;;5011740;28;20584;-69
2021/06/10 12:41:34;;;;;;;8.98;8.02;;;;;;;;;;5011617;28;20089;-68
2021/06/10 12:44:09;;;;;;;10.45;9.30;;;;;;;;;;5011842;28;20468;-69
2021/06/10 12:46:47;;;;;;;8.85;8.15;;;;;;;;;;5010902;28;20054;-69
2021/06/10 12:49:14;;;;;;;10.07;9.27;;;;;;;;;;5015339;28;20401;-69
2021/06/10 12:51:42;;;;;;;10.25;9.25;;;;;;;;;;5014845;28;20480;-69
2021/06/10 12:54:17;;;;;;;9.27;8.30;;;;;;;;;;5013289;28;20570;-69
2021/06/10 12:56:52;;;;;;;8.05;7.32;;;;;;;;;;5015149;28;20054;-69
2021/06/10 12:59:24;;;;;;;7.20;6.47;;;;;;;;;;5004588;28;20054;-69
2021/06/10 13:02:07;;;;;;;7.18;6.47;;;;;;;;;;4995415;28;20096;-69
2021/06/10 13:04:42;;;;;;;7.85;6.97;;;;;;;;;;4995522;28;20077;-69
2021/06/10 13:07:10;;;;;;;7.00;6.28;;;;;;;;;;5010326;28;20050;-69
2021/06/10 13:09:44;;;;;;;7.78;6.97;;;;;;;;;;4995032;28;20054;-69
2021/06/10 13:12:10;;;;;;;9.73;6.97;;;;;;;;;;5024235;28;20629;-69
2021/06/10 13:14:37;;;;;;;7.85;6.75;;;;;;;;;;5014896;28;20102;-69
2021/06/10 13:17:04;;;;;;;5.43;4.93;;;;;;;;;;5014903;28;20076;-69
2021/06/10 13:19:31;;;;;;;5.43;5.00;;;;;;;;;;5014791;28;20050;-69
2021/06/10 13:22:08;;;;;;;4.85;4.45;;;;;;;;;;5014407;28;20046;-69
2021/06/10 13:24:42;;;;;;;6.03;5.45;;;;;;;;;;5013310;28;20100;-69
2021/06/10 13:27:22;;;;;;;7.00;6.30;;;;;;;;;;5014758;28;20072;-69
2021/06/10 13:29:56;;;;;;;5.63;5.10;;;;;;;;;;5013366;28;20042;-69
2021/06/10 13:32:27;;;;;;;6.07;5.57;;;;;;;;;;5013547;28;20042;-68
2021/06/10 13:35:14;;;;;;;6.20;5.53;;;;;;;;;;5003188;28;20129;-69
2021/06/10 13:37:40;;;;;;;5.85;4.97;;;;;;;;;;5005824;28;20077;-69
2021/06/10 13:40:07;;;;;;;4.07;3.78;;;;;;;;;;5022428;28;20125;-69
2021/06/10 13:42:34;;;;;;;3.75;3.42;;;;;;;;;;5007348;28;20129;-69
2021/06/10 13:45:01;;;;;;;4.40;4.00;;;;;;;;;;5001922;28;20113;-69
2021/06/10 13:47:27;;;;;;;4.43;4.05;;;;;;;;;;4993479;28;20097;-69
2021/06/10 13:49:54;;;;;;;5.97;4.75;;;;;;;;;;5015656;28;20081;-69
2021/06/10 13:52:21;;;;;;;6.25;5.22;;;;;;;;;;5010956;28;20125;-69
2021/06/10 13:54:47;;;;;;;9.57;6.53;;;;;;;;;;5012870;28;20123;-70
2021/06/10 13:57:14;;;;;;;6.35;5.85;;;;;;;;;;5014071;28;20200;-70
2021/06/10 13:59:40;;;;;;;6.00;5.40;;;;;;;;;;5013652;28;20072;-70
2021/06/10 14:02:07;;;;;;;5.95;5.45;;;;;;;;;;5013527;28;20046;-69
2021/06/10 14:04:34;;;;;;;6.65;6.05;;;;;;;;;;5013666;28;20053;-66
2021/06/10 14:07:02;;;;;;;7.90;6.30;;;;;;;;;;4999255;28;20050;-73
2021/06/10 14:09:29;;;;;;;6.07;5.57;;;;;;;;;;5008929;28;20081;-74
2021/06/10 14:11:55;;;;;;;5.97;5.40;;;;;;;;;;5010577;28;20050;-72
2021/06/10 14:14:22;;;;;;;6.70;6.10;;;;;;;;;;5012263;28;20049;-73
2021/06/10 14:16:49;;;;;;;5.38;4.97;;;;;;;;;;5011812;28;20551;-74
2021/06/10 14:19:19;;;;;;;7.93;6.40;;;;;;;;;;5012452;28;20486;-69
2021/06/10 14:21:46;;;;;;;6.07;5.60;;;;;;;;;;5035693;22;20053;-67
2021/06/10 14:24:13;;;;;;;9.57;6.88;;;;;;;;;;5016256;28;20053;-69
2021/06/10 14:26:39;;;;;;;7.50;6.90;;;;;;;;;;5009844;28;20081;-67
2021/06/10 14:29:09;;;;;;;7.03;6.43;;;;;;;;;;5008705;28;20054;-66
2021/06/10 14:34:18;;;;;;;8.27;7.65;;;;;;;;;;5011064;28;20046;-67
2021/06/10 14:36:49;;;;;;;9.00;8.00;;;;;;;;;;5011650;28;20070;-68
2021/06/10 14:39:16;;;;;;;8.75;7.95;;;;;;;;;;5010211;28;20172;-66
2021/06/10 14:41:42;;;;;;;9.10;8.20;;;;;;;;;;5011591;28;20497;-70
2021/06/10 14:44:09;;;;;;;10.73;8.70;;;;;;;;;;5012452;28;20096;-68
2021/06/10 14:46:35;;;;;;;9.43;8.52;;;;;;;;;;5009951;28;20128;-67
2021/06/10 14:49:13;;;;;;;9.93;8.73;;;;;;;;;;5008633;28;20046;-70
2021/06/10 14:51:39;;;;;;;9.93;8.98;;;;;;;;;;5007233;28;20099;-68
2021/06/10 14:54:06;;;;;;;9.13;8.25;;;;;;;;;;5011571;28;20054;-66